sensor_id;sensor_type;location;lat;lon;timestamp;temperature;humidity
11511;DHT22;5812;48.864;9.190;2023-02-01T00:00:46;4.40;99.90
11511;DHT22;5812;48.864;9.190;2023-02-01T00:03:11;4.40;99.90
11511;DHT22;5812;48.864;9.190;2023-02-01T00:05:38;4.50;99.90
11511;DHT22;5812;48.864;9.190;2023-02-01T00:08:04;4.70;99.90
11511;DHT22;5812;48.864;9.190;2023-02-01T00:10:29;4.50;99.90
11511;DHT22;5812;48.864;9.190;2023-02-01T00:12:55;4.50;99.90
11511;DHT22;5812;48.864;9.190;2023-02-01T00:15:21;4.50;99.90
11511;DHT22;5812;48.864;9.190;2023-02-01T00:17:52;4.50;99.90
11511;DHT22;5812;48.864;9.190;2023-02-01T00:20:18;4.40;99.90
11511;DHT22;5812;48.864;9.190;2023-02-01T00:22:43;4.40;99.90
11511;DHT22;5812;48.864;9.190;2023-02-01T00:25:09;4.40;99.90
11511;DHT22;5812;48.864;9.190;2023-02-01T00:27:34;4.50;99.90
11511;DHT22;5812;48.864;9.190;2023-02-01T00:30:00;5.50;99.90
11511;DHT22;5812;48.864;9.190;2023-02-01T00:32:25;4.40;99.90
11511;DHT22;5812;48.864;9.190;2023-02-01T00:34:51;4.50;99.90
11511;DHT22;5812;48.864;9.190;2023-02-01T00:37:17;4.50;99.90
11511;DHT22;5812;48.864;9.190;2023-02-01T00:39:42;4.40;99.90
11511;DHT22;5812;48.864;9.190;2023-02-01T00:42:08;4.50;99.90
11511;DHT22;5812;48.864;9.190;2023-02-01T00:44:33;4.40;99.90
11511;DHT22;5812;48.864;9.190;2023-02-01T00:47:00;4.30;99.90
11511;DHT22;5812;48.864;9.190;2023-02-01T00:49:26;4.40;99.90
11511;DHT22;5812;48.864;9.190;2023-02-01T00:51:55;4.40;99.90
11511;DHT22;5812;48.864;9.190;2023-02-01T00:54:20;4.40;99.90
11511;DHT22;5812;48.864;9.190;2023-02-01T00:56:46;4.40;99.90
11511;DHT22;5812;48.864;9.190;2023-02-01T00:59:12;4.40;99.90
11511;DHT22;5812;48.864;9.190;2023-02-01T01:01:37;4.40;99.90
11511;DHT22;5812;48.864;9.190;2023-02-01T01:04:03;4.40;99.90
11511;DHT22;5812;48.864;9.190;2023-02-01T01:06:31;4.30;99.90
11511;DHT22;5812;48.864;9.190;2023-02-01T01:08:59;4.30;99.90
11511;DHT22;5812;48.864;9.190;2023-02-01T01:11:27;4.20;99.90
11511;DHT22;5812;48.864;9.190;2023-02-01T01:13:55;4.20;99.90
11511;DHT22;5812;48.864;9.190;2023-02-01T01:16:22;4.20;99.90
11511;DHT22;5812;48.864;9.190;2023-02-01T01:18:48;4.20;99.90
11511;DHT22;5812;48.864;9.190;2023-02-01T01:21:15;5.10;99.90
11511;DHT22;5812;48.864;9.190;2023-02-01T01:23:41;4.30;99.90
11511;DHT22;5812;48.864;9.190;2023-02-01T01:26:10;4.60;99.90
11511;DHT22;5812;48.864;9.190;2023-02-01T01:28:36;4.50;99.90
11511;DHT22;5812;48.864;9.190;2023-02-01T01:31:02;4.40;99.90
11511;DHT22;5812;48.864;9.190;2023-02-01T01:33:27;4.30;99.90
11511;DHT22;5812;48.864;9.190;2023-02-01T01:35:53;4.30;99.90
11511;DHT22;5812;48.864;9.190;2023-02-01T01:38:18;4.50;99.90
11511;DHT22;5812;48.864;9.190;2023-02-01T01:40:47;4.50;99.90
11511;DHT22;5812;48.864;9.190;2023-02-01T01:43:18;4.70;99.90
11511;DHT22;5812;48.864;9.190;2023-02-01T01:45:45;4.50;99.90
11511;DHT22;5812;48.864;9.190;2023-02-01T01:48:25;4.60;99.90
11511;DHT22;5812;48.864;9.190;2023-02-01T01:50:59;4.50;99.90
11511;DHT22;5812;48.864;9.190;2023-02-01T01:53:29;4.50;99.90
11511;DHT22;5812;48.864;9.190;2023-02-01T01:55:57;4.60;99.90
11511;DHT22;5812;48.864;9.190;2023-02-01T01:58:24;4.70;99.90
11511;DHT22;5812;48.864;9.190;2023-02-01T02:00:52;4.90;99.90
11511;DHT22;5812;48.864;9.190;2023-02-01T02:03:25;5.10;99.90
11511;DHT22;5812;48.864;9.190;2023-02-01T02:05:54;4.70;99.90
11511;DHT22;5812;48.864;9.190;2023-02-01T02:08:22;4.70;99.90
11511;DHT22;5812;48.864;9.190;2023-02-01T02:10:49;4.80;99.90
11511;DHT22;5812;48.864;9.190;2023-02-01T02:13:29;4.80;99.90
11511;DHT22;5812;48.864;9.190;2023-02-01T02:16:03;4.90;99.90
11511;DHT22;5812;48.864;9.190;2023-02-01T02:22:05;4.90;99.90
11511;DHT22;5812;48.864;9.190;2023-02-01T02:25:14;4.70;99.90
11511;DHT22;5812;48.864;9.190;2023-02-01T02:30:40;4.90;99.90
11511;DHT22;5812;48.864;9.190;2023-02-01T02:44:39;4.70;99.90
11511;DHT22;5812;48.864;9.190;2023-02-01T02:53:40;4.70;99.90
11511;DHT22;5812;48.864;9.190;2023-02-01T02:56:28;4.60;99.90
11511;DHT22;5812;48.864;9.190;2023-02-01T02:59:17;4.70;99.90
11511;DHT22;5812;48.864;9.190;2023-02-01T03:02:01;4.60;99.90
11511;DHT22;5812;48.864;9.190;2023-02-01T03:04:45;4.60;99.90
11511;DHT22;5812;48.864;9.190;2023-02-01T03:07:14;4.60;99.90
11511;DHT22;5812;48.864;9.190;2023-02-01T03:09:41;4.60;99.90
11511;DHT22;5812;48.864;9.190;2023-02-01T03:12:12;4.50;99.90
11511;DHT22;5812;48.864;9.190;2023-02-01T03:15:07;4.60;99.90
11511;DHT22;5812;48.864;9.190;2023-02-01T03:17:37;4.60;99.90
11511;DHT22;5812;48.864;9.190;2023-02-01T03:20:06;4.60;99.90
11511;DHT22;5812;48.864;9.190;2023-02-01T03:22:33;4.60;99.90
11511;DHT22;5812;48.864;9.190;2023-02-01T03:25:25;4.50;99.90
11511;DHT22;5812;48.864;9.190;2023-02-01T03:28:00;4.50;99.90
11511;DHT22;5812;48.864;9.190;2023-02-01T03:30:52;4.50;99.90
11511;DHT22;5812;48.864;9.190;2023-02-01T03:33:21;4.70;99.90
11511;DHT22;5812;48.864;9.190;2023-02-01T03:41:35;4.50;99.90
11511;DHT22;5812;48.864;9.190;2023-02-01T03:46:52;4.50;99.90
11511;DHT22;5812;48.864;9.190;2023-02-01T03:49:27;4.40;99.90
11511;DHT22;5812;48.864;9.190;2023-02-01T03:51:55;4.40;99.90
11511;DHT22;5812;48.864;9.190;2023-02-01T03:54:23;4.50;99.90
11511;DHT22;5812;48.864;9.190;2023-02-01T03:56:50;4.50;99.90
11511;DHT22;5812;48.864;9.190;2023-02-01T03:59:17;4.50;99.90
11511;DHT22;5812;48.864;9.190;2023-02-01T04:01:43;4.50;99.90
11511;DHT22;5812;48.864;9.190;2023-02-01T04:04:09;4.70;99.90
11511;DHT22;5812;48.864;9.190;2023-02-01T04:06:35;4.70;99.90
11511;DHT22;5812;48.864;9.190;2023-02-01T04:09:01;4.80;99.90
11511;DHT22;5812;48.864;9.190;2023-02-01T04:11:27;4.80;99.90
11511;DHT22;5812;48.864;9.190;2023-02-01T04:13:54;4.70;99.90
11511;DHT22;5812;48.864;9.190;2023-02-01T04:16:20;4.80;99.90
11511;DHT22;5812;48.864;9.190;2023-02-01T04:18:45;4.80;99.90
11511;DHT22;5812;48.864;9.190;2023-02-01T04:21:11;4.70;99.90
11511;DHT22;5812;48.864;9.190;2023-02-01T04:23:36;4.80;99.90
11511;DHT22;5812;48.864;9.190;2023-02-01T04:26:04;4.60;99.90
11511;DHT22;5812;48.864;9.190;2023-02-01T04:28:29;4.60;99.90
11511;DHT22;5812;48.864;9.190;2023-02-01T04:30:56;4.50;99.90
11511;DHT22;5812;48.864;9.190;2023-02-01T04:33:22;4.50;99.90
11511;DHT22;5812;48.864;9.190;2023-02-01T04:35:48;4.50;99.90
11511;DHT22;5812;48.864;9.190;2023-02-01T04:38:13;4.60;99.90
11511;DHT22;5812;48.864;9.190;2023-02-01T04:40:39;4.70;99.90
11511;DHT22;5812;48.864;9.190;2023-02-01T04:43:04;4.60;99.90
11511;DHT22;5812;48.864;9.190;2023-02-01T04:45:30;4.60;99.90
11511;DHT22;5812;48.864;9.190;2023-02-01T04:47:56;4.70;99.90
11511;DHT22;5812;48.864;9.190;2023-02-01T04:50:22;4.60;99.90
11511;DHT22;5812;48.864;9.190;2023-02-01T04:52:49;4.80;99.90
11511;DHT22;5812;48.864;9.190;2023-02-01T04:55:15;5.00;99.90
11511;DHT22;5812;48.864;9.190;2023-02-01T04:57:40;5.00;99.90
11511;DHT22;5812;48.864;9.190;2023-02-01T05:00:08;5.00;99.90
11511;DHT22;5812;48.864;9.190;2023-02-01T05:02:35;5.10;99.90
11511;DHT22;5812;48.864;9.190;2023-02-01T05:05:01;5.00;99.90
11511;DHT22;5812;48.864;9.190;2023-02-01T05:07:27;5.00;99.90
11511;DHT22;5812;48.864;9.190;2023-02-01T05:09:53;4.80;99.90
11511;DHT22;5812;48.864;9.190;2023-02-01T05:12:18;4.80;99.90
11511;DHT22;5812;48.864;9.190;2023-02-01T05:15:02;4.90;99.90
11511;DHT22;5812;48.864;9.190;2023-02-01T05:17:28;5.20;99.90
11511;DHT22;5812;48.864;9.190;2023-02-01T05:19:54;5.00;99.90
11511;DHT22;5812;48.864;9.190;2023-02-01T05:22:19;5.00;99.90
11511;DHT22;5812;48.864;9.190;2023-02-01T05:24:45;4.90;99.90
11511;DHT22;5812;48.864;9.190;2023-02-01T05:27:11;5.00;99.90
11511;DHT22;5812;48.864;9.190;2023-02-01T05:29:36;5.00;99.90
11511;DHT22;5812;48.864;9.190;2023-02-01T05:32:02;5.00;99.90
11511;DHT22;5812;48.864;9.190;2023-02-01T05:34:28;5.20;99.90
11511;DHT22;5812;48.864;9.190;2023-02-01T05:36:53;5.30;99.90
11511;DHT22;5812;48.864;9.190;2023-02-01T05:39:19;5.20;99.90
11511;DHT22;5812;48.864;9.190;2023-02-01T05:41:45;5.30;99.90
11511;DHT22;5812;48.864;9.190;2023-02-01T05:44:11;5.20;99.90
11511;DHT22;5812;48.864;9.190;2023-02-01T05:46:37;5.30;99.90
11511;DHT22;5812;48.864;9.190;2023-02-01T05:49:03;5.10;99.90
11511;DHT22;5812;48.864;9.190;2023-02-01T05:51:29;5.10;99.90
11511;DHT22;5812;48.864;9.190;2023-02-01T05:53:55;5.10;99.90
11511;DHT22;5812;48.864;9.190;2023-02-01T05:56:20;5.10;99.90
11511;DHT22;5812;48.864;9.190;2023-02-01T05:58:46;5.20;99.90
11511;DHT22;5812;48.864;9.190;2023-02-01T06:01:11;5.10;99.90
11511;DHT22;5812;48.864;9.190;2023-02-01T06:03:37;5.20;99.90
11511;DHT22;5812;48.864;9.190;2023-02-01T06:06:03;5.20;99.90
11511;DHT22;5812;48.864;9.190;2023-02-01T06:08:29;5.20;99.90
11511;DHT22;5812;48.864;9.190;2023-02-01T06:11:05;5.10;99.90
11511;DHT22;5812;48.864;9.190;2023-02-01T06:13:31;5.20;99.90
11511;DHT22;5812;48.864;9.190;2023-02-01T06:15:57;5.20;99.90
11511;DHT22;5812;48.864;9.190;2023-02-01T06:18:24;5.20;99.90
11511;DHT22;5812;48.864;9.190;2023-02-01T06:20:56;5.30;99.90
11511;DHT22;5812;48.864;9.190;2023-02-01T06:23:22;5.30;99.90
11511;DHT22;5812;48.864;9.190;2023-02-01T06:25:50;5.30;99.90
11511;DHT22;5812;48.864;9.190;2023-02-01T06:28:16;5.40;99.90
11511;DHT22;5812;48.864;9.190;2023-02-01T06:30:41;5.40;99.90
11511;DHT22;5812;48.864;9.190;2023-02-01T06:33:12;5.40;99.90
11511;DHT22;5812;48.864;9.190;2023-02-01T06:35:39;5.50;99.90
11511;DHT22;5812;48.864;9.190;2023-02-01T06:38:04;5.50;99.90
11511;DHT22;5812;48.864;9.190;2023-02-01T06:40:30;5.50;99.90
11511;DHT22;5812;48.864;9.190;2023-02-01T06:42:55;5.60;99.90
11511;DHT22;5812;48.864;9.190;2023-02-01T06:45:22;5.50;99.90
11511;DHT22;5812;48.864;9.190;2023-02-01T06:47:48;5.60;99.90
11511;DHT22;5812;48.864;9.190;2023-02-01T06:50:13;5.50;99.90
11511;DHT22;5812;48.864;9.190;2023-02-01T06:52:39;5.70;99.90
11511;DHT22;5812;48.864;9.190;2023-02-01T06:55:05;5.70;99.90
11511;DHT22;5812;48.864;9.190;2023-02-01T06:57:30;5.60;99.90
11511;DHT22;5812;48.864;9.190;2023-02-01T06:59:58;5.50;99.90
11511;DHT22;5812;48.864;9.190;2023-02-01T07:02:23;5.60;99.90
11511;DHT22;5812;48.864;9.190;2023-02-01T07:04:49;5.60;99.90
11511;DHT22;5812;48.864;9.190;2023-02-01T07:07:15;5.70;99.90
11511;DHT22;5812;48.864;9.190;2023-02-01T07:09:41;5.90;99.90
11511;DHT22;5812;48.864;9.190;2023-02-01T07:12:06;5.70;90.70
11511;DHT22;5812;48.864;9.190;2023-02-01T07:14:32;5.70;96.90
11511;DHT22;5812;48.864;9.190;2023-02-01T07:16:57;5.70;99.90
11511;DHT22;5812;48.864;9.190;2023-02-01T07:19:23;5.80;99.60
11511;DHT22;5812;48.864;9.190;2023-02-01T07:21:48;5.80;95.30
11511;DHT22;5812;48.864;9.190;2023-02-01T07:24:14;5.70;96.50
11511;DHT22;5812;48.864;9.190;2023-02-01T07:26:40;5.80;92.80
11511;DHT22;5812;48.864;9.190;2023-02-01T07:29:05;5.70;92.40
11511;DHT22;5812;48.864;9.190;2023-02-01T07:31:31;5.90;89.30
11511;DHT22;5812;48.864;9.190;2023-02-01T07:33:57;6.00;74.20
11511;DHT22;5812;48.864;9.190;2023-02-01T07:36:23;5.90;77.90
11511;DHT22;5812;48.864;9.190;2023-02-01T07:38:49;5.80;93.30
11511;DHT22;5812;48.864;9.190;2023-02-01T07:41:16;5.90;61.80
11511;DHT22;5812;48.864;9.190;2023-02-01T07:43:42;5.90;71.00
11511;DHT22;5812;48.864;9.190;2023-02-01T07:46:10;6.00;71.30
11511;DHT22;5812;48.864;9.190;2023-02-01T07:48:36;5.80;68.70
11511;DHT22;5812;48.864;9.190;2023-02-01T07:51:08;6.00;62.20
11511;DHT22;5812;48.864;9.190;2023-02-01T07:53:35;6.00;52.70
11511;DHT22;5812;48.864;9.190;2023-02-01T07:56:02;5.90;56.20
11511;DHT22;5812;48.864;9.190;2023-02-01T07:58:28;5.90;61.60
11511;DHT22;5812;48.864;9.190;2023-02-01T08:00:54;5.90;64.00
11511;DHT22;5812;48.864;9.190;2023-02-01T08:03:39;6.00;59.40
11511;DHT22;5812;48.864;9.190;2023-02-01T08:06:06;6.00;44.00
11511;DHT22;5812;48.864;9.190;2023-02-01T08:08:32;6.00;59.70
11511;DHT22;5812;48.864;9.190;2023-02-01T08:11:02;6.10;44.10
11511;DHT22;5812;48.864;9.190;2023-02-01T08:13:29;6.10;48.90
11511;DHT22;5812;48.864;9.190;2023-02-01T08:16:02;6.10;53.40
11511;DHT22;5812;48.864;9.190;2023-02-01T08:18:28;6.10;38.10
11511;DHT22;5812;48.864;9.190;2023-02-01T08:20:54;6.10;43.90
11511;DHT22;5812;48.864;9.190;2023-02-01T08:23:21;6.10;40.10
11511;DHT22;5812;48.864;9.190;2023-02-01T08:25:47;6.30;24.20
11511;DHT22;5812;48.864;9.190;2023-02-01T08:28:13;6.20;20.30
11511;DHT22;5812;48.864;9.190;2023-02-01T08:30:39;6.30;20.90
11511;DHT22;5812;48.864;9.190;2023-02-01T08:33:06;6.50;10.80
11511;DHT22;5812;48.864;9.190;2023-02-01T08:35:38;6.50;5.40
11511;DHT22;5812;48.864;9.190;2023-02-01T08:38:04;6.70;3.60
11511;DHT22;5812;48.864;9.190;2023-02-01T08:40:30;6.50;4.20
11511;DHT22;5812;48.864;9.190;2023-02-01T08:42:56;6.50;4.20
11511;DHT22;5812;48.864;9.190;2023-02-01T08:45:24;6.50;9.40
11511;DHT22;5812;48.864;9.190;2023-02-01T08:47:53;6.60;1.00
11511;DHT22;5812;48.864;9.190;2023-02-01T08:50:20;6.50;1.00
11511;DHT22;5812;48.864;9.190;2023-02-01T08:52:46;6.50;1.00
11511;DHT22;5812;48.864;9.190;2023-02-01T08:55:12;6.40;1.00
11511;DHT22;5812;48.864;9.190;2023-02-01T08:57:38;6.40;1.00
11511;DHT22;5812;48.864;9.190;2023-02-01T09:00:05;6.50;1.00
11511;DHT22;5812;48.864;9.190;2023-02-01T09:02:31;6.50;1.00
11511;DHT22;5812;48.864;9.190;2023-02-01T09:04:57;6.30;4.90
11511;DHT22;5812;48.864;9.190;2023-02-01T09:07:23;6.30;3.30
11511;DHT22;5812;48.864;9.190;2023-02-01T09:09:48;6.30;2.70
11511;DHT22;5812;48.864;9.190;2023-02-01T09:12:14;6.30;9.30
11511;DHT22;5812;48.864;9.190;2023-02-01T09:14:40;6.30;10.50
11511;DHT22;5812;48.864;9.190;2023-02-01T09:17:05;6.20;13.20
11511;DHT22;5812;48.864;9.190;2023-02-01T09:19:31;6.20;36.50
11511;DHT22;5812;48.864;9.190;2023-02-01T09:21:57;6.40;68.50
11511;DHT22;5812;48.864;9.190;2023-02-01T09:24:23;6.00;99.90
11511;DHT22;5812;48.864;9.190;2023-02-01T09:26:50;5.90;96.30
11511;DHT22;5812;48.864;9.190;2023-02-01T09:29:16;6.00;81.20
11511;DHT22;5812;48.864;9.190;2023-02-01T09:31:41;6.20;81.80
11511;DHT22;5812;48.864;9.190;2023-02-01T09:34:07;6.50;50.00
11511;DHT22;5812;48.864;9.190;2023-02-01T09:36:33;6.50;72.70
11511;DHT22;5812;48.864;9.190;2023-02-01T09:38:59;6.50;24.90
11511;DHT22;5812;48.864;9.190;2023-02-01T09:42:06;6.40;18.30
11511;DHT22;5812;48.864;9.190;2023-02-01T09:47:21;6.40;1.00
11511;DHT22;5812;48.864;9.190;2023-02-01T09:50:18;6.30;1.00
11511;DHT22;5812;48.864;9.190;2023-02-01T09:55:23;6.50;1.00
11511;DHT22;5812;48.864;9.190;2023-02-01T09:57:58;6.50;1.00
11511;DHT22;5812;48.864;9.190;2023-02-01T10:00:29;6.80;1.00
11511;DHT22;5812;48.864;9.190;2023-02-01T10:02:56;6.80;1.00
11511;DHT22;5812;48.864;9.190;2023-02-01T10:08:16;7.20;1.00
11511;DHT22;5812;48.864;9.190;2023-02-01T10:10:47;6.80;1.00
11511;DHT22;5812;48.864;9.190;2023-02-01T10:13:16;6.80;1.00
11511;DHT22;5812;48.864;9.190;2023-02-01T10:16:04;6.70;1.00
11511;DHT22;5812;48.864;9.190;2023-02-01T10:27:28;6.90;1.00
11511;DHT22;5812;48.864;9.190;2023-02-01T10:30:01;6.90;1.00
11511;DHT22;5812;48.864;9.190;2023-02-01T10:32:32;7.30;1.00
11511;DHT22;5812;48.864;9.190;2023-02-01T10:35:08;6.90;1.00
11511;DHT22;5812;48.864;9.190;2023-02-01T10:37:35;6.90;1.00
11511;DHT22;5812;48.864;9.190;2023-02-01T10:40:16;6.80;1.00
11511;DHT22;5812;48.864;9.190;2023-02-01T10:42:44;6.80;1.00
11511;DHT22;5812;48.864;9.190;2023-02-01T10:45:14;6.90;1.00
11511;DHT22;5812;48.864;9.190;2023-02-01T10:47:42;7.00;1.00
11511;DHT22;5812;48.864;9.190;2023-02-01T10:50:11;7.00;1.00
11511;DHT22;5812;48.864;9.190;2023-02-01T10:53:23;6.80;1.00
11511;DHT22;5812;48.864;9.190;2023-02-01T10:55:54;7.10;1.00
11511;DHT22;5812;48.864;9.190;2023-02-01T10:58:28;6.90;1.00
11511;DHT22;5812;48.864;9.190;2023-02-01T11:01:06;6.90;1.00
11511;DHT22;5812;48.864;9.190;2023-02-01T11:03:56;6.90;1.00
11511;DHT22;5812;48.864;9.190;2023-02-01T11:08:58;6.90;1.00
11511;DHT22;5812;48.864;9.190;2023-02-01T11:11:24;7.20;1.00
11511;DHT22;5812;48.864;9.190;2023-02-01T11:13:56;6.60;1.00
11511;DHT22;5812;48.864;9.190;2023-02-01T11:16:36;6.70;1.00
11511;DHT22;5812;48.864;9.190;2023-02-01T11:19:03;6.70;1.00
11511;DHT22;5812;48.864;9.190;2023-02-01T11:21:29;6.70;1.00
11511;DHT22;5812;48.864;9.190;2023-02-01T11:23:55;6.60;1.00
11511;DHT22;5812;48.864;9.190;2023-02-01T11:26:26;6.80;1.00
11511;DHT22;5812;48.864;9.190;2023-02-01T11:29:00;7.10;1.00
11511;DHT22;5812;48.864;9.190;2023-02-01T11:31:27;6.90;1.00
11511;DHT22;5812;48.864;9.190;2023-02-01T11:33:57;6.90;1.00
11511;DHT22;5812;48.864;9.190;2023-02-01T11:36:27;6.70;1.00
11511;DHT22;5812;48.864;9.190;2023-02-01T11:41:58;6.90;1.00
11511;DHT22;5812;48.864;9.190;2023-02-01T11:47:28;7.00;1.00
11511;DHT22;5812;48.864;9.190;2023-02-01T11:50:00;7.10;1.00
11511;DHT22;5812;48.864;9.190;2023-02-01T12:15:02;6.90;1.00
11511;DHT22;5812;48.864;9.190;2023-02-01T12:20:38;7.00;1.00
11511;DHT22;5812;48.864;9.190;2023-02-01T12:23:37;6.70;1.00
11511;DHT22;5812;48.864;9.190;2023-02-01T12:31:41;6.90;1.00
11511;DHT22;5812;48.864;9.190;2023-02-01T12:39:53;6.90;1.00
11511;DHT22;5812;48.864;9.190;2023-02-01T12:42:31;6.80;1.00
11511;DHT22;5812;48.864;9.190;2023-02-01T12:45:43;6.70;1.00
11511;DHT22;5812;48.864;9.190;2023-02-01T12:48:26;6.40;1.00
11511;DHT22;5812;48.864;9.190;2023-02-01T12:51:05;6.10;28.10
11511;DHT22;5812;48.864;9.190;2023-02-01T12:56:09;6.30;1.00
11511;DHT22;5812;48.864;9.190;2023-02-01T12:58:44;6.30;1.00
11511;DHT22;5812;48.864;9.190;2023-02-01T13:01:21;6.30;1.00
11511;DHT22;5812;48.864;9.190;2023-02-01T13:06:54;6.40;1.00
11511;DHT22;5812;48.864;9.190;2023-02-01T13:09:30;6.30;1.00
11511;DHT22;5812;48.864;9.190;2023-02-01T13:12:00;6.30;1.00
11511;DHT22;5812;48.864;9.190;2023-02-01T13:14:37;6.20;1.00
11511;DHT22;5812;48.864;9.190;2023-02-01T13:17:12;6.10;1.00
11511;DHT22;5812;48.864;9.190;2023-02-01T13:20:07;6.20;1.00
11511;DHT22;5812;48.864;9.190;2023-02-01T13:22:40;6.30;1.00
11511;DHT22;5812;48.864;9.190;2023-02-01T13:28:26;6.40;1.00
11511;DHT22;5812;48.864;9.190;2023-02-01T13:31:02;6.40;1.00
11511;DHT22;5812;48.864;9.190;2023-02-01T13:42:30;6.30;1.00
11511;DHT22;5812;48.864;9.190;2023-02-01T13:45:17;6.50;1.00
11511;DHT22;5812;48.864;9.190;2023-02-01T13:47:47;6.30;1.00
11511;DHT22;5812;48.864;9.190;2023-02-01T13:50:25;6.60;1.00
11511;DHT22;5812;48.864;9.190;2023-02-01T13:52:58;6.60;1.00
11511;DHT22;5812;48.864;9.190;2023-02-01T13:55:39;6.70;1.00
11511;DHT22;5812;48.864;9.190;2023-02-01T14:00:46;6.60;1.00
11511;DHT22;5812;48.864;9.190;2023-02-01T14:03:16;6.60;1.00
11511;DHT22;5812;48.864;9.190;2023-02-01T14:08:15;6.70;1.00
11511;DHT22;5812;48.864;9.190;2023-02-01T14:13:34;6.90;1.00
11511;DHT22;5812;48.864;9.190;2023-02-01T14:23:41;6.50;1.00
11511;DHT22;5812;48.864;9.190;2023-02-01T14:26:10;6.50;1.00
11511;DHT22;5812;48.864;9.190;2023-02-01T14:28:41;6.50;1.00
11511;DHT22;5812;48.864;9.190;2023-02-01T14:34:03;6.40;1.00
11511;DHT22;5812;48.864;9.190;2023-02-01T14:37:02;6.30;1.00
11511;DHT22;5812;48.864;9.190;2023-02-01T14:39:32;6.50;1.00
11511;DHT22;5812;48.864;9.190;2023-02-01T14:42:03;6.70;1.00
11511;DHT22;5812;48.864;9.190;2023-02-01T14:44:34;6.50;1.00
11511;DHT22;5812;48.864;9.190;2023-02-01T14:47:08;6.50;1.00
11511;DHT22;5812;48.864;9.190;2023-02-01T14:49:37;6.60;1.00
11511;DHT22;5812;48.864;9.190;2023-02-01T14:52:11;6.50;1.00
11511;DHT22;5812;48.864;9.190;2023-02-01T14:54:39;6.90;1.00
11511;DHT22;5812;48.864;9.190;2023-02-01T14:57:15;6.30;1.00
11511;DHT22;5812;48.864;9.190;2023-02-01T14:59:42;6.30;1.00
11511;DHT22;5812;48.864;9.190;2023-02-01T15:02:25;6.70;1.00
11511;DHT22;5812;48.864;9.190;2023-02-01T15:04:56;6.20;1.00
11511;DHT22;5812;48.864;9.190;2023-02-01T15:07:25;6.70;1.00
11511;DHT22;5812;48.864;9.190;2023-02-01T15:09:52;6.00;1.00
11511;DHT22;5812;48.864;9.190;2023-02-01T15:12:26;6.60;1.00
11511;DHT22;5812;48.864;9.190;2023-02-01T15:17:48;6.40;1.00
11511;DHT22;5812;48.864;9.190;2023-02-01T15:20:23;6.30;1.00
11511;DHT22;5812;48.864;9.190;2023-02-01T15:22:58;6.30;1.00
11511;DHT22;5812;48.864;9.190;2023-02-01T15:25:27;6.40;1.00
11511;DHT22;5812;48.864;9.190;2023-02-01T15:27:53;6.80;1.00
11511;DHT22;5812;48.864;9.190;2023-02-01T15:30:23;6.40;1.00
11511;DHT22;5812;48.864;9.190;2023-02-01T15:32:49;6.50;1.00
11511;DHT22;5812;48.864;9.190;2023-02-01T15:35:42;6.60;1.00
11511;DHT22;5812;48.864;9.190;2023-02-01T15:41:05;6.50;1.00
11511;DHT22;5812;48.864;9.190;2023-02-01T15:43:36;6.50;1.00
11511;DHT22;5812;48.864;9.190;2023-02-01T15:46:08;6.40;1.00
11511;DHT22;5812;48.864;9.190;2023-02-01T15:48:44;6.40;1.00
11511;DHT22;5812;48.864;9.190;2023-02-01T15:51:18;6.50;1.00
11511;DHT22;5812;48.864;9.190;2023-02-01T15:53:47;6.40;1.00
11511;DHT22;5812;48.864;9.190;2023-02-01T15:56:14;6.50;1.00
11511;DHT22;5812;48.864;9.190;2023-02-01T15:58:42;6.50;1.00
11511;DHT22;5812;48.864;9.190;2023-02-01T16:01:11;6.40;1.00
11511;DHT22;5812;48.864;9.190;2023-02-01T16:03:42;6.50;1.00
11511;DHT22;5812;48.864;9.190;2023-02-01T16:08:55;6.40;1.00
11511;DHT22;5812;48.864;9.190;2023-02-01T16:11:30;6.40;1.00
11511;DHT22;5812;48.864;9.190;2023-02-01T16:13:57;6.50;1.00
11511;DHT22;5812;48.864;9.190;2023-02-01T16:16:24;6.50;1.00
11511;DHT22;5812;48.864;9.190;2023-02-01T16:18:50;6.30;1.00
11511;DHT22;5812;48.864;9.190;2023-02-01T16:21:15;6.50;1.00
11511;DHT22;5812;48.864;9.190;2023-02-01T16:23:41;6.30;1.00
11511;DHT22;5812;48.864;9.190;2023-02-01T16:26:07;6.30;1.00
11511;DHT22;5812;48.864;9.190;2023-02-01T16:28:32;6.30;1.00
11511;DHT22;5812;48.864;9.190;2023-02-01T16:30:59;6.50;1.00
11511;DHT22;5812;48.864;9.190;2023-02-01T16:33:25;6.30;1.00
11511;DHT22;5812;48.864;9.190;2023-02-01T16:35:52;6.30;1.00
11511;DHT22;5812;48.864;9.190;2023-02-01T16:38:22;6.30;1.00
11511;DHT22;5812;48.864;9.190;2023-02-01T16:40:49;6.30;1.00
11511;DHT22;5812;48.864;9.190;2023-02-01T16:43:17;6.30;1.00
11511;DHT22;5812;48.864;9.190;2023-02-01T16:45:44;6.30;1.00
11511;DHT22;5812;48.864;9.190;2023-02-01T16:48:29;6.30;1.00
11511;DHT22;5812;48.864;9.190;2023-02-01T16:50:57;6.40;1.00
11511;DHT22;5812;48.864;9.190;2023-02-01T16:53:25;6.40;1.00
11511;DHT22;5812;48.864;9.190;2023-02-01T16:55:52;6.30;1.00
11511;DHT22;5812;48.864;9.190;2023-02-01T16:58:19;6.70;1.00
11511;DHT22;5812;48.864;9.190;2023-02-01T17:00:46;6.30;1.00
11511;DHT22;5812;48.864;9.190;2023-02-01T17:03:12;6.30;1.00
11511;DHT22;5812;48.864;9.190;2023-02-01T17:05:43;6.30;1.00
11511;DHT22;5812;48.864;9.190;2023-02-01T17:08:13;6.30;1.00
11511;DHT22;5812;48.864;9.190;2023-02-01T17:10:40;6.30;1.00
11511;DHT22;5812;48.864;9.190;2023-02-01T17:13:11;6.30;1.00
11511;DHT22;5812;48.864;9.190;2023-02-01T17:15:37;6.20;1.00
11511;DHT22;5812;48.864;9.190;2023-02-01T17:18:03;6.30;1.00
11511;DHT22;5812;48.864;9.190;2023-02-01T17:20:30;6.40;1.00
11511;DHT22;5812;48.864;9.190;2023-02-01T17:22:57;6.30;1.00
11511;DHT22;5812;48.864;9.190;2023-02-01T17:25:23;6.40;1.00
11511;DHT22;5812;48.864;9.190;2023-02-01T17:27:51;6.30;1.00
11511;DHT22;5812;48.864;9.190;2023-02-01T17:30:17;6.30;1.00
11511;DHT22;5812;48.864;9.190;2023-02-01T17:32:43;6.30;1.00
11511;DHT22;5812;48.864;9.190;2023-02-01T17:35:25;6.30;1.00
11511;DHT22;5812;48.864;9.190;2023-02-01T17:37:51;6.30;1.00
11511;DHT22;5812;48.864;9.190;2023-02-01T17:40:18;6.40;1.00
11511;DHT22;5812;48.864;9.190;2023-02-01T17:42:44;6.30;1.00
11511;DHT22;5812;48.864;9.190;2023-02-01T17:47:41;6.30;1.00
11511;DHT22;5812;48.864;9.190;2023-02-01T17:50:07;6.30;1.00
11511;DHT22;5812;48.864;9.190;2023-02-01T17:52:33;6.30;1.00
11511;DHT22;5812;48.864;9.190;2023-02-01T17:55:00;6.30;1.00
11511;DHT22;5812;48.864;9.190;2023-02-01T17:57:28;6.50;1.00
11511;DHT22;5812;48.864;9.190;2023-02-01T17:59:53;6.40;1.00
11511;DHT22;5812;48.864;9.190;2023-02-01T18:02:22;6.50;1.00
11511;DHT22;5812;48.864;9.190;2023-02-01T18:04:49;6.30;1.00
11511;DHT22;5812;48.864;9.190;2023-02-01T18:07:15;6.30;1.00
11511;DHT22;5812;48.864;9.190;2023-02-01T18:09:41;6.20;1.00
11511;DHT22;5812;48.864;9.190;2023-02-01T18:12:19;6.30;1.00
11511;DHT22;5812;48.864;9.190;2023-02-01T18:14:45;6.30;1.00
11511;DHT22;5812;48.864;9.190;2023-02-01T18:17:11;6.30;1.00
11511;DHT22;5812;48.864;9.190;2023-02-01T18:19:37;6.30;1.00
11511;DHT22;5812;48.864;9.190;2023-02-01T18:22:02;6.20;1.00
11511;DHT22;5812;48.864;9.190;2023-02-01T18:24:29;6.20;1.00
11511;DHT22;5812;48.864;9.190;2023-02-01T18:26:58;6.20;1.00
11511;DHT22;5812;48.864;9.190;2023-02-01T18:29:24;6.30;1.00
11511;DHT22;5812;48.864;9.190;2023-02-01T18:31:49;6.30;1.00
11511;DHT22;5812;48.864;9.190;2023-02-01T18:34:15;6.40;1.00
11511;DHT22;5812;48.864;9.190;2023-02-01T18:36:49;6.30;1.00
11511;DHT22;5812;48.864;9.190;2023-02-01T18:39:16;6.30;1.00
11511;DHT22;5812;48.864;9.190;2023-02-01T18:41:43;6.30;1.00
11511;DHT22;5812;48.864;9.190;2023-02-01T18:44:14;6.30;1.00
11511;DHT22;5812;48.864;9.190;2023-02-01T18:46:40;6.20;1.00